• Join FlightAware (Why Join?)
  • Login
  • US Flag 
10:26AM EDT


 

Airport Tracker/Info


-or-


 

Live Flight TrackerFlight Track Log ✈ N525MB ✈ 12-Jun-2013 ✈ KYNG - KOSU

Flight Track Log - Related Links

Times and Time Zones

All times are in EDT time to prevent confusion due to time zone crossing. See the N525MB flight status page for this flight to view local times or setup timezone preferences in your user account.

Time Position Orientation Groundspeed Altitude Reporting Facility
EDT Latitude Longitude Course Direction KTS MPH feet Rate Location/Type
04:02PM 41.2428 -80.7736 239° Southwest 215 247 5,100  Level Cleveland Center
04:03PM 41.2114 -80.8397 238° Southwest 215 247 7,900 1,800 Climbing Cleveland Center
04:04PM 41.1736 -80.9031 232° Southwest 231 266 8,800 1,500 Climbing Cleveland Center
04:05PM 41.1400 -80.9803 240° Southwest 247 284 10,900 1,920 Climbing Cleveland Center
04:06PM 41.1086 -81.0433 237° Southwest 247 284 12,700 1,500 Climbing Cleveland Center
04:07PM 41.0247 -81.1464 234° Southwest  Level FlightAware Approximate
04:07PM 41.0561 -81.1256 230° Southwest 254 292 14,000  Level Cleveland Center
04:08PM 41.0078 -81.2050 231° Southwest 269 310 14,000  Level Cleveland Center
04:09PM 40.9572 -81.2897 232° Southwest 276 318 14,000  Level Cleveland Center
04:11PM 40.8806 -81.4119 230° Southwest 268 308 14,000  Level Indianapolis Center
04:12PM 40.8342 -81.4911 232° Southwest 268 308 14,000  Level Indianapolis Center
04:13PM 40.7869 -81.5661 230° Southwest 263 303 14,000  Level Indianapolis Center
04:14PM 40.7394 -81.6442 231° Southwest 269 310 14,000  Level Indianapolis Center
04:15PM 40.6903 -81.7258 232° Southwest 280 322 14,000  Level Indianapolis Center
04:16PM 40.6411 -81.8053 231° Southwest 279 321 14,000 -660 Level Indianapolis Center
04:18PM 40.5821 -81.8943 230° Southwest  Level FlightAware Approximate
04:18PM 40.5333 -81.9772 230° Southwest 276 318 12,000  Level Indianapolis Center
04:19PM 40.5042 -82.0250 231° Southwest 264 304 11,400 -900 Descending Indianapolis Center
04:19PM 40.4878 -82.0511 230° Southwest 259 298 11,100 -900 Descending Indianapolis Center
04:20PM 40.4603 -82.0944 230° Southwest 244 281 10,500 -1,020 Descending Indianapolis Center
04:20PM 40.4447 -82.1197 231° Southwest 243 280 10,100 -540 Descending Indianapolis Center
04:21PM 40.4186 -82.1614 231° Southwest 239 275 10,000 -120 Descending Indianapolis Center
04:21PM 40.4031 -82.1844 228° Southwest 229 264 10,000  Level Indianapolis Center
04:22PM 40.3814 -82.2231 234° Southwest 211 243 10,000  Level Indianapolis Center
04:22PM 40.3667 -82.2444 228° Southwest 211 243 10,000 -300 Level Indianapolis Center
04:23PM 40.3417 -82.2900 234° Southwest 198 228 9,700 -720 Descending Indianapolis Center
04:23PM 40.3333 -82.3047 233° Southwest 203 234 9,300 -1,080 Descending Indianapolis Center
04:25PM 40.3003 -82.3783 240° Southwest 232 267 8,200 -1,140 Descending Indianapolis Center
04:25PM 40.2694 -82.4436 238° Southwest 238 274 7,300 -1,020 Descending Indianapolis Center
04:26PM 40.2653 -82.4517 236° Southwest 235 270 7,200 -1,080 Descending Indianapolis Center
04:27PM 40.2269 -82.5406 241° Southwest 246 283 5,900 -1,200 Descending Indianapolis Center
04:27PM 40.1961 -82.6075 239° Southwest 266 306 5,100 -960 Descending Indianapolis Center
04:28PM 40.1875 -82.6231 234° Southwest 262 302 4,900 -1,140 Descending Indianapolis Center
04:28PM 40.1622 -82.6803 240° Southwest 256 295 4,100 -1,080 Descending Indianapolis Center
04:29PM 40.1528 -82.7031 242° Southwest 253 291 3,800 -1,020 Descending Indianapolis Center
04:29PM 40.1231 -82.7658 238° Southwest 233 268 3,000 -780 Descending Indianapolis Center
04:30PM 40.1175 -82.7758 234° Southwest 244 281 3,000  Level Indianapolis Center
04:30PM 40.0939 -82.8281 239° Southwest 193 222 3,000  Level Indianapolis Center
04:31PM 40.0900 -82.8381 243° Southwest 212 244 3,000 -240 Level Indianapolis Center
04:31PM 40.0833 -82.8922 261° West 179 206 2,800 -420 Descending Indianapolis Center
04:32PM 40.0822 -82.9150 266° West 188 216 2,600 -420 Descending Indianapolis Center
04:32PM 40.0806 -82.9653 268° West 186 214 2,400 -540 Descending Indianapolis Center
04:33PM 40.0800 -82.9842 268° West 189 217 2,100 -1,140 Descending Indianapolis Center
04:33PM 40.0783 -83.0250 267° West 177 204 1,400 -900 Descending Indianapolis Center
04:34PM 40.0783 -83.0467 270° West 181 208 1,200 -240 Descending Indianapolis Center
04:35PM 40.0775 -83.0964 269° West 174 200 1,100 -120 Descending Indianapolis Center